Primrose, Pennsylvania
Current Conditions -  °F | °C
As of 10:58 PM on Thursday 18 Dec 2014 (Local Time) from KMUI Reporting Station
Overcast Overcast  
Wind Chill: 26°   Ceiling: 2700
Heat Index: 34°   Visibility: 10mi
Dew Point: 24°   Wind: 10mph
Humidity: 67%   Direction: 280°W
Pressure: 30.06"   Gusts: NA
Location:  40.6882°N, 76.264°W
Report Text: KMUI 190358Z AUTO 28009KT 10SM OVC027 01/M04 A3006 RMK AO2 SLPNO T00131043
Loading
Personal Weather Stations






























Interactive Weather Map New forecast layout! Learn more

10-Day Weather Forecast

Advertisements
Track Severe Weather on mobile